Time;durP1;ratioP1;P1;durP2;ratioP2;P2;SDS_P1;SDS_P2;PMS_P1;PMS_P2;Temp;Humidity;BMP_temperature;BMP_pressure;BME280_temperature;BME280_humidity;BME280_pressure;Samples;Min_cycle;Max_cycle;Signal;HPM_P1;HPM_P2
2022/04/05 00:00:41;;;;;;;;;61.60;49.20;23.80;99.90;;;;;;5038997;28;8833;-66
2022/04/05 00:03:08;;;;;;;;;65.80;50.40;23.90;99.90;;;;;;5039664;28;8741;-66
2022/04/05 00:05:34;;;;;;;;;61.40;49.40;23.80;99.90;;;;;;5057805;28;8765;-66
2022/04/05 00:08:01;;;;;;;;;65.60;51.00;23.80;99.90;;;;;;5059150;28;8730;-66
2022/04/05 00:10:28;;;;;;;;;66.40;51.20;23.90;99.90;;;;;;5041259;28;8723;-65
2022/04/05 00:12:55;;;;;;;;;68.20;55.20;23.90;99.90;;;;;;5025092;28;8806;-66
2022/04/05 00:15:21;;;;;;;;;67.40;52.60;23.90;99.90;;;;;;5041054;28;8877;-65
2022/04/05 00:17:48;;;;;;;;;66.40;52.20;23.90;99.90;;;;;;5058709;28;8787;-66
2022/04/05 00:20:15;;;;;;;;;70.80;55.00;23.90;99.90;;;;;;5042321;28;8791;-66
2022/04/05 00:22:41;;;;;;;;;70.60;54.60;23.80;99.90;;;;;;5021522;28;8749;-65
2022/04/05 00:25:08;;;;;;;;;66.80;54.00;23.90;99.90;;;;;;5054321;28;8761;-65
2022/04/05 00:27:35;;;;;;;;;69.00;55.40;23.90;99.90;;;;;;5038998;28;8815;-66
2022/04/05 00:30:02;;;;;;;;;67.20;52.80;23.90;99.90;;;;;;5038686;28;8791;-66
2022/04/05 00:32:32;;;;;;;;;63.60;49.20;23.90;99.90;;;;;;5012940;28;8796;-66
2022/04/05 00:34:58;;;;;;;;;66.80;53.80;23.90;99.90;;;;;;5051914;28;8757;-66
2022/04/05 00:37:25;;;;;;;;;64.00;51.00;23.90;99.90;;;;;;5063159;28;8755;-64
2022/04/05 00:39:52;;;;;;;;;65.20;52.20;23.80;99.90;;;;;;5041327;28;8786;-66
2022/04/05 00:42:19;;;;;;;;;67.40;51.60;23.70;99.90;;;;;;5057913;28;8759;-65
2022/04/05 00:44:46;;;;;;;;;69.20;53.60;23.80;99.90;;;;;;5058291;28;8763;-66
2022/04/05 00:47:21;;;;;;;;;65.60;52.60;23.80;99.90;;;;;;5058029;28;8767;-66
2022/04/05 00:49:51;;;;;;;;;60.50;47.50;23.90;99.90;;;;;;5045975;28;8876;-66
2022/04/05 00:52:19;;;;;;;;;62.50;48.25;24.00;99.90;;;;;;5037853;28;8752;-64
2022/04/05 00:54:47;;;;;;;;;62.00;50.25;24.00;99.90;;;;;;5038448;28;8775;-66
2022/04/05 00:57:15;;;;;;;;;57.75;46.00;24.10;99.90;;;;;;5038311;28;8807;-66
2022/04/05 00:59:43;;;;;;;;;62.25;50.00;24.10;99.90;;;;;;5037932;28;8777;-66
2022/04/05 01:02:20;;;;;;;;;60.40;47.60;24.10;99.90;;;;;;5020519;28;8788;-66
2022/04/05 01:04:47;;;;;;;;;64.80;51.60;24.20;99.90;;;;;;5065143;28;8758;-66
2022/04/05 01:07:15;;;;;;;;;65.80;51.40;24.20;99.90;;;;;;5024263;28;8745;-66
2022/04/05 01:09:42;;;;;;;;;63.60;50.80;24.30;99.90;;;;;;5040173;28;8747;-66
2022/04/05 01:12:10;;;;;;;;;60.20;48.00;24.30;99.90;;;;;;5073303;28;8782;-66
2022/04/05 01:14:38;;;;;;;;;63.60;50.20;24.30;99.90;;;;;;5039894;28;8901;-66
2022/04/05 01:17:05;;;;;;;;;73.80;57.60;24.40;99.90;;;;;;5040424;28;8789;-66
2022/04/05 01:19:33;;;;;;;;;75.00;60.00;24.40;99.90;;;;;;5046906;28;8793;-65
2022/04/05 01:22:00;;;;;;;;;72.20;57.20;24.30;99.90;;;;;;5038609;28;9496;-66
2022/04/05 01:24:27;;;;;;;;;70.80;56.60;24.40;99.90;;;;;;5020104;28;8745;-65
2022/04/05 01:26:56;;;;;;;;;69.40;57.60;24.50;99.90;;;;;;5037665;28;8814;-66
2022/04/05 01:29:25;;;;;;;;;72.00;57.00;24.50;99.90;;;;;;5037321;28;8781;-66
2022/04/05 01:31:54;;;;;;;;;65.00;52.40;24.50;99.90;;;;;;5019814;28;8771;-66
2022/04/05 01:34:24;;;;;;;;;66.80;51.00;24.60;99.90;;;;;;5046207;28;8766;-65
2022/04/05 01:36:53;;;;;;;;;65.20;52.00;24.70;99.90;;;;;;5056938;28;8762;-66
2022/04/05 01:39:21;;;;;;;;;59.80;47.40;24.70;99.90;;;;;;5057223;28;8798;-66
2022/04/05 01:41:52;;;;;;;;;70.00;56.60;24.70;99.90;;;;;;5057591;28;8758;-66
2022/04/05 01:44:19;;;;;;;;;65.20;50.80;24.70;99.90;;;;;;5038833;28;8789;-62
2022/04/05 01:46:45;;;;;;;;;63.60;50.80;24.80;99.90;;;;;;5057181;28;8792;-66
2022/04/05 01:49:15;;;;;;;;;64.20;52.20;24.90;99.90;;;;;;5050104;28;8765;-66
2022/04/05 01:51:43;;;;;;;;;70.20;53.80;24.90;99.90;;;;;;5020097;28;8764;-66
2022/04/05 01:54:13;;;;;;;;;71.20;54.40;25.00;99.90;;;;;;5037263;28;9939;-66
2022/04/05 01:56:43;;;;;;;;;65.20;51.00;25.00;99.90;;;;;;5037053;28;8800;-66
2022/04/05 01:59:14;;;;;;;;;63.60;50.00;25.00;99.90;;;;;;5037189;28;8793;-66
2022/04/05 02:01:41;;;;;;;;;64.50;50.50;25.10;99.90;;;;;;5036709;28;8810;-66
2022/04/05 02:04:09;;;;;;;;;67.00;52.50;25.10;99.90;;;;;;5044269;28;8774;-66
2022/04/05 02:06:36;;;;;;;;;65.40;50.00;25.10;99.90;;;;;;5056491;28;8759;-66
2022/04/05 02:09:03;;;;;;;;;64.60;50.40;25.20;99.90;;;;;;5057054;28;8865;-66
2022/04/05 02:11:31;;;;;;;;;64.40;51.40;25.30;99.90;;;;;;5038985;28;8774;-66
2022/04/05 02:14:00;;;;;;;;;60.20;49.60;25.30;99.90;;;;;;5056613;28;8959;-66
2022/04/05 02:16:27;;;;;;;;;64.75;52.50;25.40;99.90;;;;;;5056503;28;9438;-65
2022/04/05 02:18:54;;;;;;;;;64.60;49.80;25.60;99.90;;;;;;5052213;28;8935;-66
2022/04/05 02:21:22;;;;;;;;;61.75;49.50;25.50;99.90;;;;;;5036359;28;8741;-66
2022/04/05 02:23:48;;;;;;;;;66.00;50.75;25.50;99.90;;;;;;5052027;28;8779;-66
2022/04/05 02:26:15;;;;;;;;;62.00;47.60;25.60;99.90;;;;;;5036700;28;8753;-66
2022/04/05 02:28:42;;;;;;;;;67.60;52.40;25.60;99.90;;;;;;5036545;28;8721;-66
2022/04/05 02:31:09;;;;;;;;;64.40;51.40;25.70;99.90;;;;;;5037210;28;8737;-66
2022/04/05 02:33:36;;;;;;;;;63.20;50.20;25.80;99.90;;;;;;5038123;28;8745;-66
2022/04/05 02:36:11;;;;;;;;;59.60;49.00;25.90;99.90;;;;;;5056625;28;8743;-66
2022/04/05 02:38:38;;;;;;;;;64.25;50.50;25.90;99.90;;;;;;5055715;28;9431;-66
2022/04/05 02:41:06;;;;;;;;;63.25;51.25;25.90;99.90;;;;;;5056551;28;8747;-66
2022/04/05 02:43:34;;;;;;;;;64.00;51.25;25.90;99.90;;;;;;5056195;28;8850;-66
2022/04/05 02:46:01;;;;;;;;;57.25;46.75;26.00;99.90;;;;;;5072418;28;8849;-66
2022/04/05 02:48:27;;;;;;;;;64.80;51.00;26.10;99.90;;;;;;5072508;28;8734;-66
2022/04/05 02:50:54;;;;;;;;;63.60;48.60;26.10;99.90;;;;;;5022974;28;8776;-66
2022/04/05 02:53:21;;;;;;;;;54.40;45.20;26.20;99.90;;;;;;5040294;28;8832;-66
2022/04/05 02:55:47;;;;;;;;;65.00;50.60;26.20;99.90;;;;;;5040750;28;8792;-66
2022/04/05 02:58:14;;;;;;;;;61.60;50.60;26.20;99.90;;;;;;5023231;28;8717;-66
2022/04/05 03:00:41;;;;;;;;;64.60;50.20;26.20;99.90;;;;;;5040215;28;8784;-66
2022/04/05 03:03:08;;;;;;;;;62.20;47.80;26.20;99.90;;;;;;5022570;28;8769;-66
2022/04/05 03:05:37;;;;;;;;;63.00;48.60;26.30;99.90;;;;;;5058174;28;8897;-66
2022/04/05 03:08:05;;;;;;;;;51.00;42.50;26.50;99.90;;;;;;5060120;28;8727;-66
2022/04/05 03:10:32;;;;;;;;;52.75;42.25;26.50;99.90;;;;;;5059953;28;8909;-65
2022/04/05 03:13:00;;;;;;;;;57.25;45.75;26.50;99.90;;;;;;5060891;28;8759;-65
2022/04/05 03:15:27;;;;;;;;;60.75;46.00;26.60;99.90;;;;;;5059623;28;9395;-66
2022/04/05 03:17:55;;;;;;;;;53.80;42.60;26.70;99.90;;;;;;5059976;28;8762;-65
2022/04/05 03:20:24;;;;;;;;;55.50;45.00;26.70;99.90;;;;;;5043061;28;8781;-65
2022/04/05 03:22:52;;;;;;;;;54.20;45.00;26.70;99.90;;;;;;5022131;28;9390;-65
2022/04/05 03:25:18;;;;;;;;;55.25;43.75;26.70;99.90;;;;;;5022834;28;8725;-65
2022/04/05 03:27:45;;;;;;;;;56.25;46.50;26.70;99.90;;;;;;5040118;28;8733;-66
2022/04/05 03:30:15;;;;;;;;;58.00;46.00;26.70;99.90;;;;;;5039748;28;8769;-66
2022/04/05 03:32:42;;;;;;;;;49.75;41.75;26.90;99.90;;;;;;5039576;28;8855;-66
2022/04/05 03:35:09;;;;;;;;;56.50;46.75;26.90;99.90;;;;;;5054589;28;8751;-66
2022/04/05 03:37:36;;;;;;;;;56.50;47.00;27.10;99.90;;;;;;5059027;28;8762;-66
2022/04/05 03:40:04;;;;;;;;;60.00;47.25;27.30;99.90;;;;;;5042705;28;8789;-66
2022/04/05 03:42:31;;;;;;;;;58.25;45.25;27.20;99.90;;;;;;5059247;28;8877;-66
2022/04/05 03:44:58;;;;;;;;;53.80;44.00;27.30;99.90;;;;;;5041761;28;8743;-66
2022/04/05 03:47:26;;;;;;;;;56.40;46.40;27.20;99.90;;;;;;5059142;28;9443;-65
2022/04/05 03:49:53;;;;;;;;;53.20;44.20;27.40;99.90;;;;;;5046377;28;9275;-65
2022/04/05 03:52:19;;;;;;;;;52.00;41.25;27.40;99.90;;;;;;5039485;28;8749;-65
2022/04/05 03:54:46;;;;;;;;;65.20;49.00;27.40;99.90;;;;;;5039398;28;8749;-65
2022/04/05 03:57:13;;;;;;;;;54.00;44.20;27.70;99.90;;;;;;5039521;28;9135;-66
2022/04/05 03:59:40;;;;;;;;;59.80;47.00;27.80;99.90;;;;;;5038112;28;8875;-66
2022/04/05 04:02:07;;;;;;;;;58.40;47.40;27.80;99.90;;;;;;5039456;28;8764;-66
2022/04/05 04:04:33;;;;;;;;;50.25;43.00;27.60;99.90;;;;;;5048826;28;8723;-65
2022/04/05 04:07:00;;;;;;;;;51.75;43.00;27.60;99.90;;;;;;5042080;28;8758;-66
2022/04/05 04:09:27;;;;;;;;;47.25;39.75;27.70;99.90;;;;;;5058883;28;8764;-65
2022/04/05 04:11:53;;;;;;;;;48.25;39.25;27.70;99.90;;;;;;5059141;28;8754;-65
2022/04/05 04:14:20;;;;;;;;;54.25;43.50;27.70;99.90;;;;;;5058797;28;8759;-65
2022/04/05 04:16:47;;;;;;;;;52.00;43.25;28.00;99.90;;;;;;5058896;28;8747;-66
2022/04/05 04:19:13;;;;;;;;;44.50;35.00;28.10;99.90;;;;;;5067300;28;8761;-66
2022/04/05 04:21:40;;;;;;;;;48.00;39.75;28.00;99.90;;;;;;5038594;28;8729;-65
2022/04/05 04:24:07;;;;;;;;;50.25;40.50;28.20;98.60;;;;;;5038921;28;8741;-66
2022/04/05 04:26:34;;;;;;;;;50.00;39.50;28.30;99.20;;;;;;5038465;28;9149;-66
2022/04/05 04:29:04;;;;;;;;;51.25;43.00;28.30;97.90;;;;;;5038789;28;8753;-66
2022/04/05 04:31:31;;;;;;;;;52.25;41.75;28.30;97.70;;;;;;5038021;28;8764;-65
2022/04/05 04:33:58;;;;;;;;;55.50;44.25;28.40;98.70;;;;;;5044413;28;8748;-66
2022/04/05 04:36:25;;;;;;;;;53.50;42.50;28.20;98.00;;;;;;5058243;28;8758;-66
2022/04/05 04:38:52;;;;;;;;;50.25;40.50;28.50;99.30;;;;;;5058422;28;8793;-66
2022/04/05 04:41:21;;;;;;;;;51.25;43.00;28.30;99.40;;;;;;5058266;28;8769;-65
2022/04/05 04:43:49;;;;;;;;;48.50;40.75;28.40;99.90;;;;;;5058344;28;8751;-66
2022/04/05 04:46:15;;;;;;;;;53.00;42.25;28.60;98.30;;;;;;5058564;28;8758;-65
2022/04/05 04:48:43;;;;;;;;;47.25;39.25;28.60;99.00;;;;;;5055165;28;8872;-66
2022/04/05 04:51:10;;;;;;;;;53.00;42.75;28.60;98.50;;;;;;5053642;28;8755;-66
2022/04/05 04:53:37;;;;;;;;;54.25;42.75;28.70;98.40;;;;;;5037863;28;8768;-66
2022/04/05 04:56:04;;;;;;;;;54.25;43.25;28.80;97.70;;;;;;5038505;28;8780;-66
2022/04/05 04:58:31;;;;;;;;;48.50;38.50;28.80;96.20;;;;;;5037933;28;8797;-65
2022/04/05 05:00:58;;;;;;;;;51.75;40.75;28.60;98.00;;;;;;5054133;28;8794;-66
2022/04/05 05:03:25;;;;;;;;;52.75;43.25;28.50;98.40;;;;;;5020921;28;8726;-65
2022/04/05 05:05:51;;;;;;;;;48.75;41.00;28.80;97.00;;;;;;5057892;28;8779;-66
2022/04/05 05:08:18;;;;;;;;;50.00;41.00;28.70;96.10;;;;;;5057385;28;8778;-64
2022/04/05 05:10:45;;;;;;;;;47.25;39.25;28.70;97.20;;;;;;5057124;28;8810;-65
2022/04/05 05:13:12;;;;;;;;;51.25;39.50;28.60;97.30;;;;;;5058131;28;8743;-66
2022/04/05 05:15:39;;;;;;;;;50.50;41.50;28.70;98.00;;;;;;5057522;28;8790;-65
2022/04/05 05:18:06;;;;;;;;;48.25;40.50;28.90;97.20;;;;;;5057687;28;8751;-65
2022/04/05 05:20:35;;;;;;;;;41.25;36.75;28.90;97.50;;;;;;5039584;28;8838;-65
2022/04/05 05:23:02;;;;;;;;;51.00;41.00;28.80;97.10;;;;;;5010466;28;8877;-66
2022/04/05 05:25:29;;;;;;;;;46.25;37.25;28.70;97.00;;;;;;5012101;28;8849;-65
2022/04/05 05:27:55;;;;;;;;;50.00;40.00;28.90;97.10;;;;;;5038082;28;8771;-65
2022/04/05 05:30:22;;;;;;;;;49.00;40.75;29.10;96.50;;;;;;5052580;28;8749;-65
2022/04/05 05:32:49;;;;;;;;;48.75;41.50;29.10;97.30;;;;;;5037509;28;8749;-66
2022/04/05 05:35:17;;;;;;;;;49.25;40.50;29.10;96.90;;;;;;5053187;28;8763;-66
2022/04/05 05:37:44;;;;;;;;;54.25;44.00;29.30;96.40;;;;;;5057104;28;8727;-66
2022/04/05 05:40:11;;;;;;;;;50.50;40.75;29.50;96.70;;;;;;5057722;28;8775;-66
2022/04/05 05:42:48;;;;;;;;;52.75;42.50;29.30;96.30;;;;;;5057152;28;8758;-66
2022/04/05 05:45:15;;;;;;;;;48.25;40.25;29.30;96.30;;;;;;5057082;28;8786;-65
2022/04/05 05:47:42;;;;;;;;;46.25;37.50;29.30;96.90;;;;;;5057170;28;8767;-65
2022/04/05 05:50:10;;;;;;;;;49.50;39.50;29.60;96.90;;;;;;5042022;28;8765;-65
2022/04/05 05:52:37;;;;;;;;;31.00;30.50;29.60;95.60;;;;;;5036769;28;8737;-65
2022/04/05 05:55:05;;;;;;;;;51.25;42.00;29.60;96.40;;;;;;5037791;28;8749;-66
2022/04/05 05:57:32;;;;;;;;;52.50;41.75;29.70;96.00;;;;;;5037348;28;8810;-65
2022/04/05 05:59:58;;;;;;;;;49.00;39.75;29.70;96.20;;;;;;5037054;28;8789;-65
2022/04/05 06:02:25;;;;;;;;;48.00;37.75;29.70;95.50;;;;;;5019423;28;8779;-65
2022/04/05 06:04:52;;;;;;;;;50.00;40.00;29.60;95.80;;;;;;5049460;28;8769;-65
2022/04/05 06:07:18;;;;;;;;;47.50;39.00;29.80;96.40;;;;;;5057376;28;8739;-65
2022/04/05 06:09:45;;;;;;;;;47.25;40.00;29.70;96.40;;;;;;5056891;28;9384;-65
2022/04/05 06:12:12;;;;;;;;;46.25;38.50;30.00;95.40;;;;;;5057058;28;8823;-66
2022/04/05 06:14:39;;;;;;;;;49.75;40.00;30.00;95.70;;;;;;5056437;28;8786;-66
2022/04/05 06:17:05;;;;;;;;;38.75;32.75;29.90;95.70;;;;;;5072151;28;8740;-66
2022/04/05 06:19:32;;;;;;;;;50.75;40.50;30.10;94.90;;;;;;5046067;28;8784;-65
2022/04/05 06:21:58;;;;;;;;;52.00;40.00;30.20;94.90;;;;;;5037284;28;8756;-66
2022/04/05 06:24:25;;;;;;;;;47.75;40.00;30.30;94.70;;;;;;5051960;28;8768;-65
2022/04/05 06:26:52;;;;;;;;;45.25;36.50;30.30;93.90;;;;;;5052339;28;9350;-66
2022/04/05 06:29:18;;;;;;;;;42.25;36.75;30.30;93.80;;;;;;5036767;28;8760;-64
2022/04/05 06:31:45;;;;;;;;;43.75;35.50;30.30;93.80;;;;;;5036810;28;8843;-66
2022/04/05 06:34:12;;;;;;;;;41.25;34.50;30.10;94.40;;;;;;5044271;28;8873;-66
2022/04/05 06:36:41;;;;;;;;;40.50;34.75;30.10;93.90;;;;;;5056252;28;8755;-66
2022/04/05 06:39:08;;;;;;;;;40.50;35.25;30.10;93.00;;;;;;5056574;28;8805;-66
2022/04/05 06:41:35;;;;;;;;;41.75;36.00;30.10;93.20;;;;;;5056400;28;8715;-66
2022/04/05 06:44:02;;;;;;;;;45.50;35.50;30.20;93.10;;;;;;5056799;28;8755;-66
2022/04/05 06:46:28;;;;;;;;;44.50;37.00;30.10;93.40;;;;;;5047860;28;8754;-65
2022/04/05 06:48:55;;;;;;;;;39.00;32.50;30.30;94.10;;;;;;5052282;28;8846;-66
2022/04/05 06:51:22;;;;;;;;;39.50;33.75;30.30;93.50;;;;;;5036069;28;8760;-65
2022/04/05 06:53:48;;;;;;;;;36.50;31.50;30.20;94.50;;;;;;5036526;28;8729;-66
2022/04/05 06:56:15;;;;;;;;;38.75;35.00;30.40;92.30;;;;;;5035940;28;9397;-66
2022/04/05 06:58:42;;;;;;;;;40.75;34.00;30.10;92.80;;;;;;5036462;28;8767;-66
2022/04/05 07:01:09;;;;;;;;;41.25;33.75;30.10;93.40;;;;;;5037052;28;8717;-66
2022/04/05 07:03:36;;;;;;;;;22.25;20.25;30.30;92.60;;;;;;5037967;28;8757;-66
2022/04/05 07:06:03;;;;;;;;;24.75;23.00;30.30;92.80;;;;;;5056164;28;8759;-66
2022/04/05 07:08:30;;;;;;;;;32.25;27.00;30.80;92.50;;;;;;5038322;28;9726;-66
2022/04/05 07:10:57;;;;;;;;;25.75;25.75;30.90;91.60;;;;;;5038551;28;8751;-65
2022/04/05 07:13:24;;;;;;;;;31.00;28.50;31.10;91.20;;;;;;5056778;28;8786;-66
2022/04/05 07:15:51;;;;;;;;;28.00;26.25;30.90;91.60;;;;;;5056303;28;8801;-65
2022/04/05 07:18:18;;;;;;;;;25.00;25.00;30.40;91.20;;;;;;5055885;28;8877;-63
2022/04/05 07:20:46;;;;;;;;;28.50;25.25;30.70;91.20;;;;;;5036501;28;10252;-66
2022/04/05 07:23:15;;;;;;;;;21.00;21.00;30.80;91.20;;;;;;5036203;28;8992;-66
2022/04/05 07:25:42;;;;;;;;;26.50;25.75;30.90;90.30;;;;;;5036044;28;8741;-65
2022/04/05 07:28:11;;;;;;;;;20.00;19.25;30.80;91.10;;;;;;5018930;28;8741;-66
2022/04/05 07:30:38;;;;;;;;;23.75;23.75;30.90;90.00;;;;;;5036070;28;8796;-66
2022/04/05 07:33:04;;;;;;;;;28.25;25.00;30.90;89.70;;;;;;5036087;28;8753;-66
2022/04/05 07:35:31;;;;;;;;;24.25;22.00;31.10;88.30;;;;;;5055751;28;8778;-65
2022/04/05 07:37:58;;;;;;;;;16.00;13.25;30.90;88.20;;;;;;5075225;28;8770;-66
2022/04/05 07:40:27;;;;;;;;;17.25;16.50;31.30;88.60;;;;;;5059672;28;8760;-59
2022/04/05 07:42:53;;;;;;;;;17.50;16.00;31.30;88.80;;;;;;5060410;28;8743;-66
2022/04/05 07:45:20;;;;;;;;;22.00;18.25;31.10;87.20;;;;;;5059252;28;8758;-65
2022/04/05 07:47:47;;;;;;;;;21.00;19.25;31.00;88.00;;;;;;5059556;28;8762;-66
2022/04/05 07:50:14;;;;;;;;;20.00;19.00;30.70;88.20;;;;;;5059842;28;8773;-66
2022/04/05 07:52:40;;;;;;;;;16.75;16.50;31.20;87.20;;;;;;5055524;28;8721;-66
2022/04/05 07:55:08;;;;;;;;;18.50;17.50;30.90;87.50;;;;;;5040478;28;8721;-66
2022/04/05 07:57:40;;;;;;;;;16.75;16.75;31.20;85.00;;;;;;5039565;28;8814;-66
2022/04/05 08:00:07;;;;;;;;;20.25;19.25;31.10;83.90;;;;;;5039800;28;9484;-71
2022/04/05 08:02:34;;;;;;;;;23.50;22.75;31.20;84.80;;;;;;5039407;28;8768;-71
2022/04/05 08:05:01;;;;;;;;;24.75;24.00;31.10;85.60;;;;;;5053471;28;9423;-70
2022/04/05 08:07:28;;;;;;;;;25.75;21.50;31.10;87.10;;;;;;5059654;28;8738;-70
2022/04/05 08:09:54;;;;;;;;;22.00;20.75;31.10;89.20;;;;;;5042271;28;8848;-70
2022/04/05 08:12:21;;;;;;;;;20.75;18.75;30.80;90.00;;;;;;5024840;28;9238;-69
2022/04/05 08:14:48;;;;;;;;;18.50;15.50;30.90;86.20;;;;;;5059976;28;9270;-70
2022/04/05 08:17:14;;;;;;;;;20.50;20.50;31.00;87.20;;;;;;5063564;28;8798;-70
2022/04/05 08:19:41;;;;;;;;;17.50;16.25;31.40;86.60;;;;;;5063057;28;12263;-69
2022/04/05 08:22:08;;;;;;;;;16.00;16.00;31.30;85.70;;;;;;5022079;28;8783;-69
2022/04/05 08:24:35;;;;;;;;;16.50;16.00;31.30;84.70;;;;;;5038243;28;8887;-69
2022/04/05 08:27:05;;;;;;;;;18.25;16.00;31.20;86.30;;;;;;5038956;28;8741;-69
2022/04/05 08:29:31;;;;;;;;;14.00;13.50;31.30;85.10;;;;;;5013550;28;8747;-69
2022/04/05 08:31:58;;;;;;;;;18.00;17.25;31.10;85.80;;;;;;5038851;28;8749;-69
2022/04/05 08:34:25;;;;;;;;;17.50;16.00;31.10;84.50;;;;;;5029427;28;8731;-67
2022/04/05 08:36:53;;;;;;;;;16.75;16.25;31.40;84.30;;;;;;5059346;28;8832;-69
2022/04/05 08:39:19;;;;;;;;;22.25;21.75;31.30;85.10;;;;;;5057955;28;9380;-68
2022/04/05 08:41:46;;;;;;;;;26.00;22.00;31.70;86.40;;;;;;5058748;28;8719;-69
2022/04/05 08:44:13;;;;;;;;;22.25;21.25;31.80;84.30;;;;;;5041026;28;8731;-69
2022/04/05 08:46:40;;;;;;;;;24.75;21.25;31.70;83.40;;;;;;5040140;28;9098;-68
2022/04/05 08:49:07;;;;;;;;;24.00;22.00;31.60;84.10;;;;;;5035501;28;8801;-68
2022/04/05 08:51:34;;;;;;;;;24.00;23.25;31.50;83.20;;;;;;5004094;28;8842;-68
2022/04/05 08:54:02;;;;;;;;;24.25;22.75;31.60;84.70;;;;;;5036971;28;8735;-69
2022/04/05 08:56:30;;;;;;;;;27.50;24.75;31.30;83.90;;;;;;5038312;28;8710;-69
2022/04/05 08:58:57;;;;;;;;;25.50;19.75;31.50;82.80;;;;;;5038581;28;8765;-69
2022/04/05 09:01:29;;;;;;;;;25.00;24.50;31.20;86.00;;;;;;5038754;28;8703;-69
2022/04/05 09:03:58;;;;;;;;;17.75;17.75;31.40;85.00;;;;;;5043416;28;8866;-69
2022/04/05 09:06:32;;;;;;;;;27.50;25.00;31.60;84.70;;;;;;5058041;28;8720;-69
2022/04/05 09:09:19;;;;;;;;;27.50;25.00;31.50;84.50;;;;;;5058379;28;8745;-69
2022/04/05 09:11:50;;;;;;;;;23.00;22.00;31.40;85.30;;;;;;5058247;28;8839;-69
2022/04/05 09:14:24;;;;;;;;;27.25;23.00;31.60;83.70;;;;;;5073482;28;8748;-69
2022/04/05 09:17:14;;;;;;;;;33.25;27.00;31.60;83.70;;;;;;5058336;28;8744;-69
2022/04/05 09:19:42;;;;;;;;;25.75;24.50;31.30;86.60;;;;;;5047049;28;8944;-69
2022/04/05 09:22:09;;;;;;;;;28.50;27.00;31.40;86.60;;;;;;5038727;28;8723;-69
2022/04/05 09:24:37;;;;;;;;;26.75;26.25;31.50;86.20;;;;;;5038019;28;8762;-69
2022/04/05 09:27:04;;;;;;;;;30.75;29.00;31.60;84.20;;;;;;5037804;28;8861;-69
2022/04/05 09:29:44;;;;;;;;;27.00;26.25;31.60;84.00;;;;;;5020173;28;8743;-68
2022/04/05 09:32:11;;;;;;;;;28.25;26.50;31.40;82.80;;;;;;5037582;28;8746;-69
2022/04/05 09:34:50;;;;;;;;;29.75;28.00;31.40;85.50;;;;;;5048180;28;8732;-68
2022/04/05 09:37:23;;;;;;;;;26.25;25.75;31.50;85.00;;;;;;5040401;28;8742;-69
2022/04/05 09:39:50;;;;;;;;;22.00;22.00;31.30;85.50;;;;;;5058133;28;8758;-69
2022/04/05 09:42:17;;;;;;;;;28.75;26.25;31.30;87.40;;;;;;5057661;28;8760;-69
2022/04/05 09:44:44;;;;;;;;;29.00;28.50;31.30;88.10;;;;;;5057464;28;8712;-69
2022/04/05 09:47:17;;;;;;;;;33.25;30.25;31.60;86.70;;;;;;5057196;28;8781;-69
2022/04/05 09:49:48;;;;;;;;;33.25;29.00;31.60;85.10;;;;;;5045715;28;8754;-69
2022/04/05 09:52:27;;;;;;;;;31.25;30.25;31.50;86.50;;;;;;5037923;28;8842;-69
2022/04/05 09:54:54;;;;;;;;;34.25;30.50;31.50;87.30;;;;;;5037406;28;8786;-69
2022/04/05 09:57:33;;;;;;;;;28.75;28.75;31.60;86.70;;;;;;5051794;28;9309;-69
2022/04/05 10:00:14;;;;;;;;;31.25;29.25;31.50;87.30;;;;;;5036856;28;8796;-69
2022/04/05 10:03:00;;;;;;;;;32.75;30.50;31.40;88.40;;;;;;5036933;28;8764;-69
2022/04/05 10:05:28;;;;;;;;;27.33;26.00;31.20;88.00;;;;;;5036298;28;8755;-69
2022/04/05 10:07:55;;;;;;;;;35.25;33.00;31.10;87.40;;;;;;5039248;28;8805;-69
2022/04/05 10:10:23;;;;;;;;;31.25;30.00;31.20;88.90;;;;;;5056953;28;8846;-68
2022/04/05 10:12:50;;;;;;;;;37.00;33.25;31.30;88.40;;;;;;5057141;28;8723;-69
2022/04/05 10:15:18;;;;;;;;;28.75;28.00;31.30;88.90;;;;;;5056838;28;8827;-69
2022/04/05 10:17:45;;;;;;;;;31.75;29.00;31.40;87.50;;;;;;5039057;28;9486;-69
2022/04/05 10:20:12;;;;;;;;;34.25;31.00;31.60;87.30;;;;;;5023829;28;8765;-69
2022/04/05 10:22:42;;;;;;;;;32.50;29.25;31.40;87.20;;;;;;5035240;28;8753;-69
2022/04/05 10:25:09;;;;;;;;;36.25;30.00;31.40;87.30;;;;;;5019848;28;8709;-69
2022/04/05 10:27:36;;;;;;;;;34.25;30.25;31.50;86.60;;;;;;5051768;28;9451;-69
2022/04/05 10:30:08;;;;;;;;;20.75;17.00;31.40;86.60;;;;;;5019548;28;8738;-69
2022/04/05 10:32:44;;;;;;;;;36.50;29.50;31.30;86.40;;;;;;5018843;28;8785;-68
2022/04/05 10:35:10;;;;;;;;;34.00;32.00;31.40;87.70;;;;;;5051625;28;8751;-69
2022/04/05 10:37:38;;;;;;;;;35.50;31.50;31.30;90.00;;;;;;5038404;28;8889;-69
2022/04/05 10:40:11;;;;;;;;;34.50;30.75;31.30;90.50;;;;;;5056996;28;8731;-69
2022/04/05 10:42:39;;;;;;;;;37.75;32.75;31.30;89.60;;;;;;5056307;28;8747;-69
2022/04/05 10:45:12;;;;;;;;;31.00;30.50;31.20;90.20;;;;;;5055889;28;8897;-69
2022/04/05 10:47:57;;;;;;;;;34.25;29.25;31.20;88.50;;;;;;5056421;28;8790;-69
2022/04/05 10:50:24;;;;;;;;;36.50;32.00;31.20;90.20;;;;;;5039265;28;8790;-68
2022/04/05 10:53:15;;;;;;;;;36.25;32.50;31.10;90.40;;;;;;5036353;28;9067;-69
2022/04/05 10:56:07;;;;;;;;;41.00;33.00;31.10;90.60;;;;;;5051880;28;8724;-69
2022/04/05 10:58:55;;;;;;;;;33.75;31.00;31.10;91.30;;;;;;5036204;28;8776;-69
2022/04/05 11:01:22;;;;;;;;;39.75;33.50;31.00;91.40;;;;;;5037429;28;8765;-69
2022/04/05 11:04:14;;;;;;;;;34.50;30.50;31.00;91.30;;;;;;5040263;28;8769;-69
2022/04/05 11:07:02;;;;;;;;;38.00;31.50;31.00;90.90;;;;;;5038382;28;8822;-69
2022/04/05 11:09:46;;;;;;;;;36.50;33.50;30.80;92.70;;;;;;5058626;28;8763;-69
2022/04/05 11:12:20;;;;;;;;;34.75;31.00;30.60;92.40;;;;;;5060304;28;8801;-69
2022/04/05 11:14:50;;;;;;;;;39.50;34.25;30.50;91.90;;;;;;5060210;28;9878;-69
2022/04/05 11:17:18;;;;;;;;;38.50;34.25;30.40;92.20;;;;;;5060035;28;8789;-69
2022/04/05 11:19:47;;;;;;;;;34.75;31.00;30.30;91.90;;;;;;5063926;28;8804;-69
2022/04/05 11:22:39;;;;;;;;;43.50;34.00;30.30;92.00;;;;;;5040521;28;8741;-69
2022/04/05 11:25:09;;;;;;;;;44.50;35.00;30.20;92.70;;;;;;5040857;28;8826;-70
2022/04/05 11:27:38;;;;;;;;;40.50;34.50;30.20;94.60;;;;;;5039496;28;8776;-69
2022/04/05 11:30:26;;;;;;;;;37.50;33.25;30.20;95.20;;;;;;5040067;28;8769;-70
2022/04/05 11:33:17;;;;;;;;;33.50;31.25;30.20;96.20;;;;;;5039890;28;8858;-69
2022/04/05 11:35:44;;;;;;;;;40.00;34.50;30.20;93.20;;;;;;5058985;28;8773;-69
2022/04/05 11:38:20;;;;;;;;;36.25;33.00;30.20;93.00;;;;;;5059796;28;8758;-69
2022/04/05 11:40:51;;;;;;;;;34.00;30.75;30.10;93.10;;;;;;5060022;28;8805;-69
2022/04/05 11:43:24;;;;;;;;;42.50;36.00;30.10;93.40;;;;;;5060571;28;8751;-68
2022/04/05 11:45:55;;;;;;;;;39.50;33.75;30.10;94.20;;;;;;5059825;28;9278;-69
2022/04/05 11:48:22;;;;;;;;;30.25;29.25;30.10;95.40;;;;;;5041690;28;8858;-69
2022/04/05 11:50:49;;;;;;;;;22.75;22.00;30.00;95.70;;;;;;5039290;28;8770;-69
2022/04/05 11:53:24;;;;;;;;;41.75;33.75;30.00;95.90;;;;;;5039270;28;8781;-70
2022/04/05 11:56:13;;;;;;;;;46.75;37.25;30.00;96.50;;;;;;5039477;28;8734;-69
2022/04/05 11:58:42;;;;;;;;;46.00;36.25;29.90;96.80;;;;;;5039575;28;8794;-69
2022/04/05 12:01:10;;;;;;;;;40.00;34.75;29.90;96.30;;;;;;5039869;28;8723;-70
2022/04/05 12:03:45;;;;;;;;;42.75;35.25;29.90;95.80;;;;;;5022977;28;8832;-69
2022/04/05 12:06:13;;;;;;;;;45.50;37.75;29.80;95.80;;;;;;5059420;28;8740;-69
2022/04/05 12:08:40;;;;;;;;;42.75;36.00;29.80;95.90;;;;;;5059016;28;8768;-69
2022/04/05 12:11:07;;;;;;;;;42.50;35.00;29.80;97.90;;;;;;5041171;28;8798;-69
2022/04/05 12:13:34;;;;;;;;;44.75;38.75;29.80;97.80;;;;;;5058624;28;8825;-69
2022/04/05 12:16:06;;;;;;;;;44.00;35.25;29.80;97.10;;;;;;5059504;28;8748;-69
2022/04/05 12:18:33;;;;;;;;;38.75;35.50;29.60;99.90;;;;;;5056417;28;8851;-69
2022/04/05 12:21:08;;;;;;;;;43.75;37.00;29.50;99.90;;;;;;5038550;28;8770;-69
2022/04/05 12:23:36;;;;;;;;;47.25;38.25;29.60;99.90;;;;;;5053027;28;8778;-69
2022/04/05 12:26:21;;;;;;;;;44.00;38.50;29.60;99.90;;;;;;5021122;28;8877;-69
2022/04/05 12:28:57;;;;;;;;;49.00;39.75;29.60;99.90;;;;;;5038933;28;9506;-69
2022/04/05 12:31:28;;;;;;;;;49.00;39.25;29.40;99.90;;;;;;5054807;28;8761;-69
2022/04/05 12:34:11;;;;;;;;;47.00;38.50;29.30;99.90;;;;;;5058504;28;8805;-69
2022/04/05 12:36:38;;;;;;;;;54.25;43.00;29.30;99.90;;;;;;5058634;28;8803;-69
2022/04/05 12:39:20;;;;;;;;;53.50;42.50;29.30;99.90;;;;;;5063569;28;8839;-69
2022/04/05 12:41:50;;;;;;;;;80.20;61.80;29.30;99.90;;;;;;5041651;28;8793;-69
2022/04/05 12:44:19;;;;;;;;;76.40;54.00;29.30;99.90;;;;;;5045852;28;8752;-69